sensor_id;sensor_type;location;lat;lon;timestamp;temperature;humidity
46882;DHT22;44112;38.408;-122.974;2022-08-20T00:00:26;31.00;36.90
46882;DHT22;44112;38.408;-122.974;2022-08-20T00:03:05;31.10;36.60
46882;DHT22;44112;38.408;-122.974;2022-08-20T00:05:35;31.00;36.70
46882;DHT22;44112;38.408;-122.974;2022-08-20T00:08:03;30.80;36.80
46882;DHT22;44112;38.408;-122.974;2022-08-20T00:10:32;30.80;37.10
46882;DHT22;44112;38.408;-122.974;2022-08-20T00:12:59;30.80;37.10
46882;DHT22;44112;38.408;-122.974;2022-08-20T00:15:29;30.80;37.10
46882;DHT22;44112;38.408;-122.974;2022-08-20T00:17:57;30.80;37.30
46882;DHT22;44112;38.408;-122.974;2022-08-20T00:20:29;30.90;37.10
46882;DHT22;44112;38.408;-122.974;2022-08-20T00:22:56;30.80;37.30
46882;DHT22;44112;38.408;-122.974;2022-08-20T00:25:24;30.80;37.20
46882;DHT22;44112;38.408;-122.974;2022-08-20T00:27:51;30.80;37.60
46882;DHT22;44112;38.408;-122.974;2022-08-20T00:30:17;30.90;37.20
46882;DHT22;44112;38.408;-122.974;2022-08-20T00:35:16;30.80;37.10
46882;DHT22;44112;38.408;-122.974;2022-08-20T00:37:43;30.80;37.20
46882;DHT22;44112;38.408;-122.974;2022-08-20T00:40:13;30.90;37.10
46882;DHT22;44112;38.408;-122.974;2022-08-20T00:42:43;30.80;37.30
46882;DHT22;44112;38.408;-122.974;2022-08-20T00:45:10;30.80;37.10
46882;DHT22;44112;38.408;-122.974;2022-08-20T00:47:38;30.80;36.80
46882;DHT22;44112;38.408;-122.974;2022-08-20T00:50:10;30.70;36.90
46882;DHT22;44112;38.408;-122.974;2022-08-20T00:52:40;30.70;37.20
46882;DHT22;44112;38.408;-122.974;2022-08-20T00:55:08;30.50;37.10
46882;DHT22;44112;38.408;-122.974;2022-08-20T00:57:40;30.50;37.10
46882;DHT22;44112;38.408;-122.974;2022-08-20T01:00:17;30.60;37.30
46882;DHT22;44112;38.408;-122.974;2022-08-20T01:02:45;30.60;37.50
46882;DHT22;44112;38.408;-122.974;2022-08-20T01:05:13;30.70;37.40
46882;DHT22;44112;38.408;-122.974;2022-08-20T01:07:40;30.60;37.10
46882;DHT22;44112;38.408;-122.974;2022-08-20T01:10:15;30.60;37.00
46882;DHT22;44112;38.408;-122.974;2022-08-20T01:12:46;30.30;38.20
46882;DHT22;44112;38.408;-122.974;2022-08-20T01:15:16;30.20;38.80
46882;DHT22;44112;38.408;-122.974;2022-08-20T01:17:48;30.00;39.00
46882;DHT22;44112;38.408;-122.974;2022-08-20T01:20:24;29.90;38.50
46882;DHT22;44112;38.408;-122.974;2022-08-20T01:28:49;29.80;39.80
46882;DHT22;44112;38.408;-122.974;2022-08-20T01:31:20;29.80;40.10
46882;DHT22;44112;38.408;-122.974;2022-08-20T01:33:49;29.80;40.10
46882;DHT22;44112;38.408;-122.974;2022-08-20T01:36:21;29.70;39.00
46882;DHT22;44112;38.408;-122.974;2022-08-20T01:38:48;29.70;40.30
46882;DHT22;44112;38.408;-122.974;2022-08-20T01:43:54;29.50;40.70
46882;DHT22;44112;38.408;-122.974;2022-08-20T01:46:24;29.50;40.90
46882;DHT22;44112;38.408;-122.974;2022-08-20T01:48:52;29.40;40.80
46882;DHT22;44112;38.408;-122.974;2022-08-20T01:51:23;29.20;40.90
46882;DHT22;44112;38.408;-122.974;2022-08-20T01:53:54;29.20;40.40
46882;DHT22;44112;38.408;-122.974;2022-08-20T01:56:24;29.20;40.40
46882;DHT22;44112;38.408;-122.974;2022-08-20T01:58:54;29.20;40.10
46882;DHT22;44112;38.408;-122.974;2022-08-20T02:01:30;29.20;39.40
46882;DHT22;44112;38.408;-122.974;2022-08-20T02:04:02;29.20;39.40
46882;DHT22;44112;38.408;-122.974;2022-08-20T02:06:31;29.20;39.70
46882;DHT22;44112;38.408;-122.974;2022-08-20T02:09:00;29.30;39.20
46882;DHT22;44112;38.408;-122.974;2022-08-20T02:11:28;29.20;40.00
46882;DHT22;44112;38.408;-122.974;2022-08-20T02:13:57;29.10;39.40
46882;DHT22;44112;38.408;-122.974;2022-08-20T02:16:28;29.00;39.30
46882;DHT22;44112;38.408;-122.974;2022-08-20T02:19:07;28.80;39.90
46882;DHT22;44112;38.408;-122.974;2022-08-20T02:21:39;28.70;39.90
46882;DHT22;44112;38.408;-122.974;2022-08-20T02:24:07;28.70;39.90
46882;DHT22;44112;38.408;-122.974;2022-08-20T02:26:34;28.70;40.20
46882;DHT22;44112;38.408;-122.974;2022-08-20T02:29:07;28.90;40.70
46882;DHT22;44112;38.408;-122.974;2022-08-20T02:31:36;28.90;41.10
46882;DHT22;44112;38.408;-122.974;2022-08-20T02:34:06;28.90;41.30
46882;DHT22;44112;38.408;-122.974;2022-08-20T02:36:35;28.90;41.20
46882;DHT22;44112;38.408;-122.974;2022-08-20T02:39:09;28.80;41.10
46882;DHT22;44112;38.408;-122.974;2022-08-20T02:41:37;28.60;41.40
46882;DHT22;44112;38.408;-122.974;2022-08-20T02:44:05;28.70;41.40
46882;DHT22;44112;38.408;-122.974;2022-08-20T02:46:33;28.70;41.10
46882;DHT22;44112;38.408;-122.974;2022-08-20T02:49:00;28.90;41.20
46882;DHT22;44112;38.408;-122.974;2022-08-20T02:51:27;28.70;41.20
46882;DHT22;44112;38.408;-122.974;2022-08-20T02:53:55;28.70;41.20
46882;DHT22;44112;38.408;-122.974;2022-08-20T02:56:22;28.70;41.50
46882;DHT22;44112;38.408;-122.974;2022-08-20T02:58:48;28.70;41.50
46882;DHT22;44112;38.408;-122.974;2022-08-20T03:01:16;28.60;41.50
46882;DHT22;44112;38.408;-122.974;2022-08-20T03:03:45;28.60;41.70
46882;DHT22;44112;38.408;-122.974;2022-08-20T03:06:13;28.60;41.60
46882;DHT22;44112;38.408;-122.974;2022-08-20T03:08:40;28.50;42.20
46882;DHT22;44112;38.408;-122.974;2022-08-20T03:11:07;28.40;42.30
46882;DHT22;44112;38.408;-122.974;2022-08-20T03:13:34;28.40;42.80
46882;DHT22;44112;38.408;-122.974;2022-08-20T03:16:02;28.30;43.40
46882;DHT22;44112;38.408;-122.974;2022-08-20T03:18:32;28.20;43.70
46882;DHT22;44112;38.408;-122.974;2022-08-20T03:20:59;28.30;43.90
46882;DHT22;44112;38.408;-122.974;2022-08-20T03:23:26;28.20;43.90
46882;DHT22;44112;38.408;-122.974;2022-08-20T03:25:53;28.20;43.90
46882;DHT22;44112;38.408;-122.974;2022-08-20T03:28:20;28.30;44.00
46882;DHT22;44112;38.408;-122.974;2022-08-20T03:30:47;28.30;43.90
46882;DHT22;44112;38.408;-122.974;2022-08-20T03:33:13;28.30;44.10
46882;DHT22;44112;38.408;-122.974;2022-08-20T03:35:41;28.30;44.30
46882;DHT22;44112;38.408;-122.974;2022-08-20T03:38:10;28.30;44.20
46882;DHT22;44112;38.408;-122.974;2022-08-20T03:40:39;28.40;44.10
46882;DHT22;44112;38.408;-122.974;2022-08-20T03:43:09;28.50;44.00
46882;DHT22;44112;38.408;-122.974;2022-08-20T03:45:38;28.60;43.80
46882;DHT22;44112;38.408;-122.974;2022-08-20T03:48:07;28.60;43.80
46882;DHT22;44112;38.408;-122.974;2022-08-20T03:50:35;28.60;44.30
46882;DHT22;44112;38.408;-122.974;2022-08-20T03:53:02;28.60;43.80
46882;DHT22;44112;38.408;-122.974;2022-08-20T03:55:31;28.60;43.80
46882;DHT22;44112;38.408;-122.974;2022-08-20T03:58:00;28.60;43.70
46882;DHT22;44112;38.408;-122.974;2022-08-20T04:00:37;28.60;43.80
46882;DHT22;44112;38.408;-122.974;2022-08-20T04:03:05;28.60;43.80
46882;DHT22;44112;38.408;-122.974;2022-08-20T04:05:35;28.50;43.60
46882;DHT22;44112;38.408;-122.974;2022-08-20T04:08:07;28.50;43.60
46882;DHT22;44112;38.408;-122.974;2022-08-20T04:10:34;28.50;43.60
46882;DHT22;44112;38.408;-122.974;2022-08-20T04:13:03;28.40;43.80
46882;DHT22;44112;38.408;-122.974;2022-08-20T04:15:30;28.50;43.70
46882;DHT22;44112;38.408;-122.974;2022-08-20T04:17:58;28.40;43.80
46882;DHT22;44112;38.408;-122.974;2022-08-20T04:20:25;28.40;43.80
46882;DHT22;44112;38.408;-122.974;2022-08-20T04:22:53;28.40;43.70
46882;DHT22;44112;38.408;-122.974;2022-08-20T04:25:22;28.30;43.60
46882;DHT22;44112;38.408;-122.974;2022-08-20T04:27:49;28.20;43.90
46882;DHT22;44112;38.408;-122.974;2022-08-20T04:30:18;28.20;43.50
46882;DHT22;44112;38.408;-122.974;2022-08-20T04:32:47;28.20;43.40
46882;DHT22;44112;38.408;-122.974;2022-08-20T04:35:15;28.20;43.40
46882;DHT22;44112;38.408;-122.974;2022-08-20T04:37:44;28.30;43.40
46882;DHT22;44112;38.408;-122.974;2022-08-20T04:40:15;28.30;43.60
46882;DHT22;44112;38.408;-122.974;2022-08-20T04:43:02;28.20;43.50
46882;DHT22;44112;38.408;-122.974;2022-08-20T04:45:31;28.20;43.50
46882;DHT22;44112;38.408;-122.974;2022-08-20T04:48:01;28.20;43.60
46882;DHT22;44112;38.408;-122.974;2022-08-20T04:50:32;28.20;43.20
46882;DHT22;44112;38.408;-122.974;2022-08-20T04:53:05;28.20;43.10
46882;DHT22;44112;38.408;-122.974;2022-08-20T04:55:32;28.20;43.20
46882;DHT22;44112;38.408;-122.974;2022-08-20T04:58:06;28.20;43.10
46882;DHT22;44112;38.408;-122.974;2022-08-20T05:00:33;28.20;42.80
46882;DHT22;44112;38.408;-122.974;2022-08-20T05:03:00;28.20;42.60
46882;DHT22;44112;38.408;-122.974;2022-08-20T05:05:27;28.20;42.20
46882;DHT22;44112;38.408;-122.974;2022-08-20T05:07:56;28.20;41.60
46882;DHT22;44112;38.408;-122.974;2022-08-20T05:10:23;28.20;41.90
46882;DHT22;44112;38.408;-122.974;2022-08-20T05:12:50;28.20;42.50
46882;DHT22;44112;38.408;-122.974;2022-08-20T05:15:18;28.20;42.20
46882;DHT22;44112;38.408;-122.974;2022-08-20T05:17:44;28.20;42.50
46882;DHT22;44112;38.408;-122.974;2022-08-20T05:20:15;28.20;42.80
46882;DHT22;44112;38.408;-122.974;2022-08-20T05:22:42;28.20;43.00
46882;DHT22;44112;38.408;-122.974;2022-08-20T05:25:09;28.20;43.10
46882;DHT22;44112;38.408;-122.974;2022-08-20T05:27:36;28.20;43.10
46882;DHT22;44112;38.408;-122.974;2022-08-20T05:30:06;28.20;42.10
46882;DHT22;44112;38.408;-122.974;2022-08-20T05:32:35;28.20;42.90
46882;DHT22;44112;38.408;-122.974;2022-08-20T05:35:05;28.20;42.80
46882;DHT22;44112;38.408;-122.974;2022-08-20T05:37:35;28.20;42.30
46882;DHT22;44112;38.408;-122.974;2022-08-20T05:40:08;28.30;42.80
46882;DHT22;44112;38.408;-122.974;2022-08-20T05:42:35;28.30;42.60
46882;DHT22;44112;38.408;-122.974;2022-08-20T05:45:03;28.30;42.50
46882;DHT22;44112;38.408;-122.974;2022-08-20T05:47:30;28.30;41.20
46882;DHT22;44112;38.408;-122.974;2022-08-20T05:49:57;28.30;42.10
46882;DHT22;44112;38.408;-122.974;2022-08-20T05:52:24;28.30;42.40
46882;DHT22;44112;38.408;-122.974;2022-08-20T05:54:51;28.30;42.40
46882;DHT22;44112;38.408;-122.974;2022-08-20T05:57:20;28.30;41.80
46882;DHT22;44112;38.408;-122.974;2022-08-20T05:59:48;28.20;42.30
46882;DHT22;44112;38.408;-122.974;2022-08-20T06:02:15;28.30;42.10
46882;DHT22;44112;38.408;-122.974;2022-08-20T06:05:01;28.20;42.20
46882;DHT22;44112;38.408;-122.974;2022-08-20T06:07:27;28.20;42.30
46882;DHT22;44112;38.408;-122.974;2022-08-20T06:09:54;28.20;42.30
46882;DHT22;44112;38.408;-122.974;2022-08-20T06:12:22;28.20;42.10
46882;DHT22;44112;38.408;-122.974;2022-08-20T06:14:48;28.20;42.10
46882;DHT22;44112;38.408;-122.974;2022-08-20T06:17:17;28.10;42.00
46882;DHT22;44112;38.408;-122.974;2022-08-20T06:19:45;28.00;41.70
46882;DHT22;44112;38.408;-122.974;2022-08-20T06:22:13;28.00;41.90
46882;DHT22;44112;38.408;-122.974;2022-08-20T06:24:41;28.00;41.80
46882;DHT22;44112;38.408;-122.974;2022-08-20T06:27:07;28.00;41.80
46882;DHT22;44112;38.408;-122.974;2022-08-20T06:29:35;28.00;41.30
46882;DHT22;44112;38.408;-122.974;2022-08-20T06:32:02;28.00;40.90
46882;DHT22;44112;38.408;-122.974;2022-08-20T06:34:28;28.00;41.00
46882;DHT22;44112;38.408;-122.974;2022-08-20T06:36:55;28.00;40.70
46882;DHT22;44112;38.408;-122.974;2022-08-20T06:39:23;28.00;41.30
46882;DHT22;44112;38.408;-122.974;2022-08-20T06:41:50;28.00;41.00
46882;DHT22;44112;38.408;-122.974;2022-08-20T06:44:18;28.00;41.10
46882;DHT22;44112;38.408;-122.974;2022-08-20T06:46:45;27.90;40.90
46882;DHT22;44112;38.408;-122.974;2022-08-20T06:49:11;28.00;41.20
46882;DHT22;44112;38.408;-122.974;2022-08-20T06:51:38;28.00;41.10
46882;DHT22;44112;38.408;-122.974;2022-08-20T06:54:05;27.90;40.70
46882;DHT22;44112;38.408;-122.974;2022-08-20T06:56:32;27.90;40.90
46882;DHT22;44112;38.408;-122.974;2022-08-20T06:58:59;27.90;40.80
46882;DHT22;44112;38.408;-122.974;2022-08-20T07:01:25;27.90;40.70
46882;DHT22;44112;38.408;-122.974;2022-08-20T07:03:53;27.90;40.90
46882;DHT22;44112;38.408;-122.974;2022-08-20T07:06:20;27.90;41.20
46882;DHT22;44112;38.408;-122.974;2022-08-20T07:08:46;27.80;41.30
46882;DHT22;44112;38.408;-122.974;2022-08-20T07:11:13;27.80;41.30
46882;DHT22;44112;38.408;-122.974;2022-08-20T07:13:40;27.80;40.90
46882;DHT22;44112;38.408;-122.974;2022-08-20T07:16:07;27.80;41.00
46882;DHT22;44112;38.408;-122.974;2022-08-20T07:18:33;27.80;41.00
46882;DHT22;44112;38.408;-122.974;2022-08-20T07:20:59;27.80;40.80
46882;DHT22;44112;38.408;-122.974;2022-08-20T07:23:26;27.80;41.10
46882;DHT22;44112;38.408;-122.974;2022-08-20T07:25:53;27.80;41.20
46882;DHT22;44112;38.408;-122.974;2022-08-20T07:28:23;27.80;41.30
46882;DHT22;44112;38.408;-122.974;2022-08-20T07:30:50;27.70;41.70
46882;DHT22;44112;38.408;-122.974;2022-08-20T07:33:36;27.70;41.80
46882;DHT22;44112;38.408;-122.974;2022-08-20T07:36:05;27.70;41.80
46882;DHT22;44112;38.408;-122.974;2022-08-20T07:38:32;27.60;41.90
46882;DHT22;44112;38.408;-122.974;2022-08-20T07:41:02;27.60;42.30
46882;DHT22;44112;38.408;-122.974;2022-08-20T07:43:29;27.50;42.40
46882;DHT22;44112;38.408;-122.974;2022-08-20T07:45:57;27.60;42.80
46882;DHT22;44112;38.408;-122.974;2022-08-20T07:48:28;27.50;43.20
46882;DHT22;44112;38.408;-122.974;2022-08-20T07:50:56;27.40;43.40
46882;DHT22;44112;38.408;-122.974;2022-08-20T07:53:24;27.40;43.60
46882;DHT22;44112;38.408;-122.974;2022-08-20T07:55:51;27.40;43.80
46882;DHT22;44112;38.408;-122.974;2022-08-20T07:58:19;27.30;43.80
46882;DHT22;44112;38.408;-122.974;2022-08-20T08:00:47;27.30;43.80
46882;DHT22;44112;38.408;-122.974;2022-08-20T08:03:13;27.40;43.90
46882;DHT22;44112;38.408;-122.974;2022-08-20T08:05:42;27.30;43.80
46882;DHT22;44112;38.408;-122.974;2022-08-20T08:08:12;27.30;43.90
46882;DHT22;44112;38.408;-122.974;2022-08-20T08:10:40;27.20;44.00
46882;DHT22;44112;38.408;-122.974;2022-08-20T08:13:09;27.20;44.10
46882;DHT22;44112;38.408;-122.974;2022-08-20T08:15:41;27.20;44.20
46882;DHT22;44112;38.408;-122.974;2022-08-20T08:18:20;27.10;44.30
46882;DHT22;44112;38.408;-122.974;2022-08-20T08:20:50;27.10;44.40
46882;DHT22;44112;38.408;-122.974;2022-08-20T08:23:22;27.00;44.50
46882;DHT22;44112;38.408;-122.974;2022-08-20T08:25:49;27.00;44.50
46882;DHT22;44112;38.408;-122.974;2022-08-20T08:28:20;27.00;44.60
46882;DHT22;44112;38.408;-122.974;2022-08-20T08:30:47;26.90;44.60
46882;DHT22;44112;38.408;-122.974;2022-08-20T08:33:22;26.90;44.60
46882;DHT22;44112;38.408;-122.974;2022-08-20T08:36:01;26.90;44.70
46882;DHT22;44112;38.408;-122.974;2022-08-20T08:38:31;26.80;44.80
46882;DHT22;44112;38.408;-122.974;2022-08-20T08:41:46;26.80;44.80
46882;DHT22;44112;38.408;-122.974;2022-08-20T08:44:41;26.70;44.90
46882;DHT22;44112;38.408;-122.974;2022-08-20T08:46:58;26.60;44.90
46882;DHT22;44112;38.408;-122.974;2022-08-20T08:49:30;26.60;45.00
46882;DHT22;44112;38.408;-122.974;2022-08-20T08:52:04;26.60;45.00
46882;DHT22;44112;38.408;-122.974;2022-08-20T08:54:33;26.60;45.00
46882;DHT22;44112;38.408;-122.974;2022-08-20T08:57:00;26.60;45.10
46882;DHT22;44112;38.408;-122.974;2022-08-20T08:59:28;26.50;45.00
46882;DHT22;44112;38.408;-122.974;2022-08-20T09:01:58;26.60;45.20
46882;DHT22;44112;38.408;-122.974;2022-08-20T09:04:39;26.60;45.20
46882;DHT22;44112;38.408;-122.974;2022-08-20T09:07:08;26.50;45.20
46882;DHT22;44112;38.408;-122.974;2022-08-20T09:09:40;26.50;45.30
46882;DHT22;44112;38.408;-122.974;2022-08-20T09:12:13;26.50;45.30
46882;DHT22;44112;38.408;-122.974;2022-08-20T09:14:40;26.40;45.20
46882;DHT22;44112;38.408;-122.974;2022-08-20T09:17:07;26.50;45.40
46882;DHT22;44112;38.408;-122.974;2022-08-20T09:19:34;26.40;45.40
46882;DHT22;44112;38.408;-122.974;2022-08-20T09:22:12;26.40;45.40
46882;DHT22;44112;38.408;-122.974;2022-08-20T09:24:40;26.40;45.40
46882;DHT22;44112;38.408;-122.974;2022-08-20T09:27:07;26.40;45.60
46882;DHT22;44112;38.408;-122.974;2022-08-20T09:29:34;26.30;45.40
46882;DHT22;44112;38.408;-122.974;2022-08-20T09:32:08;26.30;45.50
46882;DHT22;44112;38.408;-122.974;2022-08-20T09:34:48;26.30;45.70
46882;DHT22;44112;38.408;-122.974;2022-08-20T09:37:17;26.20;45.70
46882;DHT22;44112;38.408;-122.974;2022-08-20T09:39:45;26.10;45.50
46882;DHT22;44112;38.408;-122.974;2022-08-20T09:42:18;26.20;45.60
46882;DHT22;44112;38.408;-122.974;2022-08-20T09:44:46;26.20;45.60
46882;DHT22;44112;38.408;-122.974;2022-08-20T09:47:13;26.20;46.30
46882;DHT22;44112;38.408;-122.974;2022-08-20T09:49:40;26.20;45.60
46882;DHT22;44112;38.408;-122.974;2022-08-20T09:52:12;26.30;45.70
46882;DHT22;44112;38.408;-122.974;2022-08-20T09:54:42;26.30;45.60
46882;DHT22;44112;38.408;-122.974;2022-08-20T09:57:09;26.30;45.50
46882;DHT22;44112;38.408;-122.974;2022-08-20T09:59:37;26.30;45.40
46882;DHT22;44112;38.408;-122.974;2022-08-20T10:02:04;26.40;45.50
46882;DHT22;44112;38.408;-122.974;2022-08-20T10:04:31;26.30;45.40
46882;DHT22;44112;38.408;-122.974;2022-08-20T10:06:58;26.30;45.40
46882;DHT22;44112;38.408;-122.974;2022-08-20T10:09:24;26.30;45.40
46882;DHT22;44112;38.408;-122.974;2022-08-20T10:11:51;26.30;45.40
46882;DHT22;44112;38.408;-122.974;2022-08-20T10:14:17;26.30;45.40
46882;DHT22;44112;38.408;-122.974;2022-08-20T10:16:44;26.30;45.40
46882;DHT22;44112;38.408;-122.974;2022-08-20T10:19:11;26.30;45.40
46882;DHT22;44112;38.408;-122.974;2022-08-20T10:21:37;26.30;45.40
46882;DHT22;44112;38.408;-122.974;2022-08-20T10:24:04;26.20;45.50
46882;DHT22;44112;38.408;-122.974;2022-08-20T10:26:32;26.20;45.40
46882;DHT22;44112;38.408;-122.974;2022-08-20T10:28:58;26.20;45.50
46882;DHT22;44112;38.408;-122.974;2022-08-20T10:31:26;26.20;45.50
46882;DHT22;44112;38.408;-122.974;2022-08-20T10:33:53;26.20;45.60
46882;DHT22;44112;38.408;-122.974;2022-08-20T10:36:21;26.10;45.60
46882;DHT22;44112;38.408;-122.974;2022-08-20T10:38:47;26.10;45.60
46882;DHT22;44112;38.408;-122.974;2022-08-20T10:41:14;26.20;45.60
46882;DHT22;44112;38.408;-122.974;2022-08-20T10:43:40;26.20;45.50
46882;DHT22;44112;38.408;-122.974;2022-08-20T10:46:09;26.20;45.50
46882;DHT22;44112;38.408;-122.974;2022-08-20T10:48:36;26.10;45.50
46882;DHT22;44112;38.408;-122.974;2022-08-20T10:51:03;26.10;45.40
46882;DHT22;44112;38.408;-122.974;2022-08-20T10:53:29;26.10;45.40
46882;DHT22;44112;38.408;-122.974;2022-08-20T10:55:57;26.20;45.50
46882;DHT22;44112;38.408;-122.974;2022-08-20T10:58:24;26.10;45.50
46882;DHT22;44112;38.408;-122.974;2022-08-20T11:00:52;26.10;45.50
46882;DHT22;44112;38.408;-122.974;2022-08-20T11:03:19;26.10;45.60
46882;DHT22;44112;38.408;-122.974;2022-08-20T11:05:46;26.00;45.60
46882;DHT22;44112;38.408;-122.974;2022-08-20T11:08:13;26.00;45.60
46882;DHT22;44112;38.408;-122.974;2022-08-20T11:10:39;26.00;45.60
46882;DHT22;44112;38.408;-122.974;2022-08-20T11:13:07;26.00;45.70
46882;DHT22;44112;38.408;-122.974;2022-08-20T11:15:36;26.00;45.80
46882;DHT22;44112;38.408;-122.974;2022-08-20T11:18:03;25.90;45.70
46882;DHT22;44112;38.408;-122.974;2022-08-20T11:20:30;25.90;45.80
46882;DHT22;44112;38.408;-122.974;2022-08-20T11:22:57;25.90;45.90
46882;DHT22;44112;38.408;-122.974;2022-08-20T11:25:25;25.90;45.80
46882;DHT22;44112;38.408;-122.974;2022-08-20T11:27:54;26.00;45.70
46882;DHT22;44112;38.408;-122.974;2022-08-20T11:30:27;26.00;45.60
46882;DHT22;44112;38.408;-122.974;2022-08-20T11:32:55;26.00;45.50
46882;DHT22;44112;38.408;-122.974;2022-08-20T11:35:23;26.10;45.50
46882;DHT22;44112;38.408;-122.974;2022-08-20T11:37:51;26.10;46.10
46882;DHT22;44112;38.408;-122.974;2022-08-20T11:40:17;26.10;45.40
46882;DHT22;44112;38.408;-122.974;2022-08-20T11:42:44;26.10;45.50
46882;DHT22;44112;38.408;-122.974;2022-08-20T11:45:13;26.10;45.40
46882;DHT22;44112;38.408;-122.974;2022-08-20T11:47:40;25.90;45.60
46882;DHT22;44112;38.408;-122.974;2022-08-20T11:50:10;25.90;45.80
46882;DHT22;44112;38.408;-122.974;2022-08-20T11:52:38;25.80;46.00
46882;DHT22;44112;38.408;-122.974;2022-08-20T11:55:06;25.80;46.00
46882;DHT22;44112;38.408;-122.974;2022-08-20T11:57:34;25.70;45.90
46882;DHT22;44112;38.408;-122.974;2022-08-20T12:00:05;25.70;46.00
46882;DHT22;44112;38.408;-122.974;2022-08-20T12:02:35;25.70;46.10
46882;DHT22;44112;38.408;-122.974;2022-08-20T12:05:02;25.70;46.00
46882;DHT22;44112;38.408;-122.974;2022-08-20T12:07:29;25.80;45.90
46882;DHT22;44112;38.408;-122.974;2022-08-20T12:09:55;25.80;45.70
46882;DHT22;44112;38.408;-122.974;2022-08-20T12:12:23;25.90;45.70
46882;DHT22;44112;38.408;-122.974;2022-08-20T12:14:51;25.90;45.70
46882;DHT22;44112;38.408;-122.974;2022-08-20T12:17:20;25.90;45.70
46882;DHT22;44112;38.408;-122.974;2022-08-20T12:19:51;25.90;45.70
46882;DHT22;44112;38.408;-122.974;2022-08-20T12:22:17;25.90;45.70
46882;DHT22;44112;38.408;-122.974;2022-08-20T12:24:44;25.90;45.70
46882;DHT22;44112;38.408;-122.974;2022-08-20T12:27:17;25.80;45.60
46882;DHT22;44112;38.408;-122.974;2022-08-20T12:29:46;25.70;45.80
46882;DHT22;44112;38.408;-122.974;2022-08-20T12:32:13;25.70;46.30
46882;DHT22;44112;38.408;-122.974;2022-08-20T12:34:41;25.60;46.10
46882;DHT22;44112;38.408;-122.974;2022-08-20T12:37:14;25.50;46.00
46882;DHT22;44112;38.408;-122.974;2022-08-20T12:39:43;25.50;46.10
46882;DHT22;44112;38.408;-122.974;2022-08-20T12:42:10;25.50;46.30
46882;DHT22;44112;38.408;-122.974;2022-08-20T12:44:37;25.40;46.30
46882;DHT22;44112;38.408;-122.974;2022-08-20T12:47:14;25.50;46.20
46882;DHT22;44112;38.408;-122.974;2022-08-20T12:49:46;25.50;46.10
46882;DHT22;44112;38.408;-122.974;2022-08-20T12:52:15;25.60;46.00
46882;DHT22;44112;38.408;-122.974;2022-08-20T12:54:42;25.70;46.00
46882;DHT22;44112;38.408;-122.974;2022-08-20T12:57:35;25.70;46.00
46882;DHT22;44112;38.408;-122.974;2022-08-20T13:00:10;25.60;46.00
46882;DHT22;44112;38.408;-122.974;2022-08-20T13:02:38;25.60;45.90
46882;DHT22;44112;38.408;-122.974;2022-08-20T13:05:07;25.60;45.90
46882;DHT22;44112;38.408;-122.974;2022-08-20T13:07:35;25.60;45.90
46882;DHT22;44112;38.408;-122.974;2022-08-20T13:10:04;25.50;46.10
46882;DHT22;44112;38.408;-122.974;2022-08-20T13:12:31;25.40;46.40
46882;DHT22;44112;38.408;-122.974;2022-08-20T13:14:58;25.30;46.40
46882;DHT22;44112;38.408;-122.974;2022-08-20T13:17:25;25.30;46.50
46882;DHT22;44112;38.408;-122.974;2022-08-20T13:19:51;25.30;46.60
46882;DHT22;44112;38.408;-122.974;2022-08-20T13:22:18;25.20;46.60
46882;DHT22;44112;38.408;-122.974;2022-08-20T13:24:45;25.20;46.70
46882;DHT22;44112;38.408;-122.974;2022-08-20T13:27:15;25.20;46.60
46882;DHT22;44112;38.408;-122.974;2022-08-20T13:29:50;25.30;46.50
46882;DHT22;44112;38.408;-122.974;2022-08-20T13:32:17;25.30;46.30
46882;DHT22;44112;38.408;-122.974;2022-08-20T13:34:45;25.40;46.30
46882;DHT22;44112;38.408;-122.974;2022-08-20T13:37:18;25.40;46.30
46882;DHT22;44112;38.408;-122.974;2022-08-20T13:39:45;25.40;46.30
46882;DHT22;44112;38.408;-122.974;2022-08-20T13:42:12;25.40;46.30
46882;DHT22;44112;38.408;-122.974;2022-08-20T13:44:40;25.40;46.30
46882;DHT22;44112;38.408;-122.974;2022-08-20T13:47:21;25.40;46.30
46882;DHT22;44112;38.408;-122.974;2022-08-20T13:49:53;25.30;46.50
46882;DHT22;44112;38.408;-122.974;2022-08-20T13:52:20;25.20;46.70
46882;DHT22;44112;38.408;-122.974;2022-08-20T13:54:47;25.10;46.90
46882;DHT22;44112;38.408;-122.974;2022-08-20T13:57:15;25.10;47.00
46882;DHT22;44112;38.408;-122.974;2022-08-20T13:59:44;25.00;47.10
46882;DHT22;44112;38.408;-122.974;2022-08-20T14:02:12;25.00;47.10
46882;DHT22;44112;38.408;-122.974;2022-08-20T14:04:39;24.90;47.20
46882;DHT22;44112;38.408;-122.974;2022-08-20T14:09:48;25.10;46.90
46882;DHT22;44112;38.408;-122.974;2022-08-20T14:12:16;25.10;46.70
46882;DHT22;44112;38.408;-122.974;2022-08-20T14:14:43;25.10;46.70
46882;DHT22;44112;38.408;-122.974;2022-08-20T14:17:31;25.10;46.60
46882;DHT22;44112;38.408;-122.974;2022-08-20T14:20:19;25.10;46.60
46882;DHT22;44112;38.408;-122.974;2022-08-20T14:22:45;25.20;46.70
46882;DHT22;44112;38.408;-122.974;2022-08-20T14:25:15;25.00;46.90
46882;DHT22;44112;38.408;-122.974;2022-08-20T14:27:42;25.00;47.30
46882;DHT22;44112;38.408;-122.974;2022-08-20T14:30:12;24.90;47.40
46882;DHT22;44112;38.408;-122.974;2022-08-20T14:32:39;24.80;47.60
46882;DHT22;44112;38.408;-122.974;2022-08-20T14:35:07;24.80;47.70
46882;DHT22;44112;38.408;-122.974;2022-08-20T14:37:37;24.80;47.80
46882;DHT22;44112;38.408;-122.974;2022-08-20T14:40:07;24.70;47.80
46882;DHT22;44112;38.408;-122.974;2022-08-20T14:42:34;24.70;47.90
46882;DHT22;44112;38.408;-122.974;2022-08-20T14:45:01;24.80;47.90
46882;DHT22;44112;38.408;-122.974;2022-08-20T14:47:33;24.80;47.60
46882;DHT22;44112;38.408;-122.974;2022-08-20T14:50:02;24.90;47.50
46882;DHT22;44112;38.408;-122.974;2022-08-20T14:52:30;24.90;47.50
46882;DHT22;44112;38.408;-122.974;2022-08-20T14:55:05;24.90;47.50
46882;DHT22;44112;38.408;-122.974;2022-08-20T14:57:32;25.00;47.60
46882;DHT22;44112;38.408;-122.974;2022-08-20T14:59:59;25.00;47.50
46882;DHT22;44112;38.408;-122.974;2022-08-20T15:02:26;25.00;47.70
46882;DHT22;44112;38.408;-122.974;2022-08-20T15:04:52;25.00;47.60
46882;DHT22;44112;38.408;-122.974;2022-08-20T15:07:32;25.00;47.60
46882;DHT22;44112;38.408;-122.974;2022-08-20T15:09:59;25.00;47.70
46882;DHT22;44112;38.408;-122.974;2022-08-20T15:12:27;24.90;47.70